Time;durP1;ratioP1;P1;durP2;ratioP2;P2;SDS_P1;SDS_P2;PMS_P1;PMS_P2;Temp;Humidity;BMP_temperature;BMP_pressure;BME280_temperature;BME280_humidity;BME280_pressure;Samples;Min_cycle;Max_cycle;Signal;HPM_P1;HPM_P2
2021/10/02 00:31:46;;;;;;;19.02;12.35;;;9.00;99.90;;;;;;5075738;28;20567;-48
2021/10/02 00:45:26;;;;;;;14.80;11.02;;;8.80;99.90;;;;;;5074414;28;20261;-49
2021/10/02 00:47:54;;;;;;;14.65;11.57;;;8.90;99.90;;;;;;5075797;28;20195;-48
2021/10/02 00:50:21;;;;;;;15.85;11.93;;;8.90;99.90;;;;;;5075080;28;20208;-47
2021/10/02 00:52:49;;;;;;;12.32;10.38;;;8.90;99.90;;;;;;5075321;28;20260;-49
2021/10/02 00:55:16;;;;;;;17.23;11.90;;;9.00;99.90;;;;;;5074740;28;20406;-49
2021/10/02 00:57:44;;;;;;;16.20;11.20;;;8.90;99.90;;;;;;5074978;28;20245;-48
2021/10/02 01:00:11;;;;;;;16.08;10.93;;;8.90;99.90;;;;;;5073903;28;20206;-49
2021/10/02 01:02:38;;;;;;;16.85;11.10;;;8.90;99.90;;;;;;5072474;28;20264;-47
2021/10/02 01:05:21;;;;;;;17.27;12.23;;;9.00;99.90;;;;;;5073644;28;20223;-52
2021/10/02 01:08:00;;;;;;;17.58;12.15;;;8.90;99.90;;;;;;5076383;28;20549;-50
2021/10/02 01:10:47;;;;;;;18.00;11.75;;;8.80;99.90;;;;;;5072550;28;20204;-48
2021/10/02 01:13:47;;;;;;;14.40;11.40;;;8.80;99.90;;;;;;5071583;28;20235;-48
2021/10/02 01:16:29;;;;;;;17.80;14.32;;;8.80;99.90;;;;;;5072524;28;20203;-50
2021/10/02 01:19:10;;;;;;;16.42;12.48;;;8.80;99.90;;;;;;5074608;28;20216;-46
2021/10/02 01:22:11;;;;;;;15.00;11.20;;;8.80;99.90;;;;;;5075400;28;20215;-53
2021/10/02 01:25:16;;;;;;;15.68;11.85;;;8.70;99.90;;;;;;5071543;28;20222;-53
2021/10/02 01:27:51;;;;;;;11.93;9.85;;;8.70;99.90;;;;;;5073683;28;20198;-50
2021/10/02 01:30:37;;;;;;;13.30;11.45;;;8.70;99.90;;;;;;5074592;28;20371;-52
2021/10/02 01:33:20;;;;;;;14.55;10.98;;;8.70;99.90;;;;;;5073243;28;20215;-52
2021/10/02 01:36:06;;;;;;;15.38;13.40;;;8.70;99.90;;;;;;5075063;28;20199;-50
2021/10/02 01:47:14;;;;;;;13.88;11.25;;;8.60;99.90;;;;;;5071742;28;20195;-49
2021/10/02 01:49:48;;;;;;;14.32;10.70;;;8.80;99.90;;;;;;5072193;28;20240;-55
2021/10/02 01:52:31;;;;;;;17.20;10.02;;;8.80;99.90;;;;;;5055664;28;20500;-50
2021/10/02 01:55:00;;;;;;;14.05;10.75;;;8.70;99.90;;;;;;5073650;28;20244;-52
2021/10/02 01:57:30;;;;;;;16.23;10.55;;;8.60;99.90;;;;;;5073438;28;20199;-51
2021/10/02 02:00:03;;;;;;;15.20;10.98;;;8.70;99.90;;;;;;5073439;28;20198;-54
2021/10/02 02:02:33;;;;;;;17.67;11.00;;;8.70;99.90;;;;;;5073363;28;20227;-52
2021/10/02 02:05:04;;;;;;;15.40;10.02;;;8.90;99.90;;;;;;5074672;28;20303;-49
2021/10/02 02:07:34;;;;;;;15.85;12.55;;;8.80;99.90;;;;;;5073664;28;20203;-57
2021/10/02 02:10:06;;;;;;;13.00;10.25;;;8.60;99.90;;;;;;5077388;28;20210;-48
2021/10/02 02:12:34;;;;;;;14.65;11.23;;;8.50;99.90;;;;;;5079767;28;20226;-51
2021/10/02 02:15:07;;;;;;;19.88;13.40;;;8.40;99.90;;;;;;5080320;28;20206;-49
2021/10/02 02:17:44;;;;;;;18.70;11.48;;;8.40;99.90;;;;;;5078111;28;20236;-46
2021/10/02 02:20:20;;;;;;;14.77;11.32;;;8.40;99.90;;;;;;5079738;28;20255;-52
2021/10/02 02:22:48;;;;;;;27.10;12.00;;;8.40;99.90;;;;;;5077999;28;20218;-52
2021/10/02 02:25:17;;;;;;;15.10;11.38;;;8.30;99.90;;;;;;5077085;28;20269;-48
2021/10/02 02:27:45;;;;;;;13.30;10.80;;;8.30;99.90;;;;;;5078865;28;20191;-50
2021/10/02 02:30:13;;;;;;;17.02;10.27;;;8.40;99.90;;;;;;5075428;28;20505;-52
2021/10/02 02:32:41;;;;;;;12.85;11.48;;;8.40;99.90;;;;;;5080427;28;20222;-51
2021/10/02 02:35:08;;;;;;;15.70;11.15;;;8.30;99.90;;;;;;5075626;28;20225;-49
2021/10/02 02:37:35;;;;;;;16.00;11.10;;;8.30;99.90;;;;;;5077795;28;20379;-48
2021/10/02 02:40:04;;;;;;;11.88;10.45;;;8.40;99.90;;;;;;5076481;28;20206;-55
2021/10/02 02:42:32;;;;;;;13.05;10.25;;;8.50;99.90;;;;;;5075943;28;20304;-50
2021/10/02 02:44:59;;;;;;;15.15;11.98;;;8.30;99.90;;;;;;5078076;28;20223;-52
2021/10/02 02:47:30;;;;;;;16.60;11.43;;;8.50;99.90;;;;;;5082128;28;20241;-54
2021/10/02 02:50:11;;;;;;;20.05;11.38;;;8.40;99.90;;;;;;5080566;28;20575;-54
2021/10/02 02:52:52;;;;;;;13.73;11.10;;;8.30;99.90;;;;;;5068326;28;20354;-48
2021/10/02 02:55:21;;;;;;;15.52;11.38;;;8.40;99.90;;;;;;5075198;28;20261;-47
2021/10/02 02:57:54;;;;;;;13.80;10.98;;;8.40;99.90;;;;;;5077564;28;20506;-50
2021/10/02 03:00:23;;;;;;;14.93;10.85;;;8.40;99.90;;;;;;5077007;28;20245;-52
2021/10/02 03:02:54;;;;;;;17.35;12.07;;;8.40;99.90;;;;;;5077159;28;20241;-48
2021/10/02 03:05:23;;;;;;;13.80;9.75;;;8.30;99.90;;;;;;5076757;28;20223;-48
2021/10/02 03:08:02;;;;;;;18.17;10.25;;;8.40;99.90;;;;;;5077205;28;20494;-47
2021/10/02 03:10:30;;;;;;;13.52;11.00;;;8.30;99.90;;;;;;5077801;28;20237;-53
2021/10/02 03:13:06;;;;;;;14.68;10.45;;;8.30;99.90;;;;;;5076018;28;20245;-51
2021/10/02 03:15:35;;;;;;;21.52;11.52;;;8.40;99.90;;;;;;5077167;28;20387;-49
2021/10/02 03:18:03;;;;;;;14.25;10.38;;;8.40;99.90;;;;;;5074793;28;20241;-50
2021/10/02 03:20:32;;;;;;;16.38;11.82;;;8.30;99.90;;;;;;5075296;28;20442;-50
2021/10/02 03:22:59;;;;;;;15.88;10.38;;;8.40;99.90;;;;;;5076418;28;20227;-49
2021/10/02 03:25:28;;;;;;;14.20;10.18;;;8.30;99.90;;;;;;5076554;28;20278;-49
2021/10/02 03:28:02;;;;;;;10.50;9.43;;;8.40;99.90;;;;;;5078974;28;20194;-53
2021/10/02 03:30:31;;;;;;;15.57;9.77;;;8.40;99.90;;;;;;5075622;28;20195;-51
2021/10/02 03:32:59;;;;;;;15.25;10.38;;;8.40;99.90;;;;;;5073039;28;20218;-56
2021/10/02 03:35:26;;;;;;;14.45;10.18;;;8.50;99.90;;;;;;5075100;28;20379;-51
2021/10/02 03:37:54;;;;;;;17.48;10.85;;;8.40;99.90;;;;;;5076207;28;20211;-49
2021/10/02 03:40:22;;;;;;;19.52;11.82;;;8.20;99.90;;;;;;5076554;28;20200;-51
2021/10/02 03:42:55;;;;;;;13.00;11.45;;;8.30;99.90;;;;;;5077337;28;20414;-48
2021/10/02 03:45:25;;;;;;;12.93;10.05;;;8.40;99.90;;;;;;5076639;28;20227;-47
2021/10/02 03:47:54;;;;;;;16.00;11.15;;;8.50;99.90;;;;;;5076549;28;20195;-47
2021/10/02 03:50:21;;;;;;;15.98;9.57;;;8.40;99.90;;;;;;5076162;28;20195;-48
2021/10/02 03:52:48;;;;;;;15.35;11.77;;;8.50;99.90;;;;;;5076192;28;20214;-49
2021/10/02 03:55:16;;;;;;;13.77;10.35;;;8.50;99.90;;;;;;5075475;28;20200;-49
2021/10/02 03:57:44;;;;;;;13.75;10.50;;;8.40;99.90;;;;;;5076121;28;20198;-49
2021/10/02 04:00:13;;;;;;;16.45;10.77;;;8.20;99.90;;;;;;5074775;28;20198;-51
2021/10/02 04:02:40;;;;;;;12.60;10.35;;;8.30;99.90;;;;;;5073309;28;20250;-51
2021/10/02 04:05:08;;;;;;;15.00;11.32;;;8.40;99.90;;;;;;5074045;28;20616;-49
2021/10/02 04:07:36;;;;;;;13.75;10.80;;;8.30;99.90;;;;;;5075357;28;20226;-48
2021/10/02 04:10:07;;;;;;;20.98;11.75;;;8.40;99.90;;;;;;5075151;28;20238;-50
2021/10/02 04:12:35;;;;;;;14.55;10.32;;;8.20;99.90;;;;;;5075095;28;20229;-51
2021/10/02 04:15:03;;;;;;;14.13;10.85;;;8.10;99.90;;;;;;5074106;28;20233;-53
2021/10/02 04:17:30;;;;;;;15.15;10.20;;;8.00;99.90;;;;;;5074118;28;20221;-53
2021/10/02 04:19:57;;;;;;;12.52;10.63;;;8.20;99.90;;;;;;5075030;28;20198;-48
2021/10/02 04:22:25;;;;;;;21.33;11.18;;;8.30;99.90;;;;;;5073699;28;20220;-49
2021/10/02 04:24:53;;;;;;;14.02;10.82;;;8.30;99.90;;;;;;5077735;28;20442;-49
2021/10/02 04:27:20;;;;;;;13.98;10.77;;;8.40;99.90;;;;;;5075171;28;20195;-54
2021/10/02 04:29:47;;;;;;;13.77;11.77;;;8.30;99.90;;;;;;5075145;28;20195;-50
2021/10/02 04:32:14;;;;;;;19.17;12.00;;;8.30;99.90;;;;;;5073386;28;20227;-48
2021/10/02 04:34:41;;;;;;;15.88;10.93;;;8.30;99.90;;;;;;5074975;28;20199;-52
2021/10/02 04:37:08;;;;;;;17.83;11.05;;;8.10;99.90;;;;;;5073059;28;20199;-51
2021/10/02 04:39:36;;;;;;;12.23;11.02;;;8.30;99.90;;;;;;5074479;28;20186;-51
2021/10/02 04:42:04;;;;;;;12.88;10.40;;;8.30;99.90;;;;;;5074744;28;20422;-47
2021/10/02 04:44:32;;;;;;;15.95;10.77;;;8.20;99.90;;;;;;5073708;28;20249;-52
2021/10/02 04:46:59;;;;;;;21.85;12.57;;;8.10;99.90;;;;;;5072060;28;20195;-47
2021/10/02 04:49:27;;;;;;;20.13;11.52;;;8.10;99.90;;;;;;5073246;28;20195;-49
2021/10/02 04:51:54;;;;;;;18.30;13.05;;;8.00;99.90;;;;;;5076968;28;20268;-52
2021/10/02 04:54:21;;;;;;;13.65;11.55;;;8.10;99.90;;;;;;5074736;28;20382;-51
2021/10/02 04:56:48;;;;;;;14.13;11.27;;;8.20;99.90;;;;;;5074480;28;20203;-47
2021/10/02 04:59:15;;;;;;;14.82;11.30;;;8.10;99.90;;;;;;5073034;28;20253;-54
2021/10/02 05:01:42;;;;;;;13.88;10.38;;;8.30;99.90;;;;;;5074441;28;20395;-53
2021/10/02 05:04:10;;;;;;;14.75;11.50;;;8.40;99.90;;;;;;5073138;28;20213;-48
2021/10/02 05:06:37;;;;;;;17.73;12.88;;;8.40;99.90;;;;;;5073901;28;20269;-51
2021/10/02 05:09:04;;;;;;;15.32;11.35;;;8.50;99.90;;;;;;5070251;28;20203;-50
2021/10/02 05:11:31;;;;;;;13.18;11.52;;;8.60;99.90;;;;;;5075196;28;20196;-50
2021/10/02 05:13:58;;;;;;;17.08;11.18;;;8.70;99.90;;;;;;5073044;28;20202;-54
2021/10/02 05:16:26;;;;;;;13.88;10.68;;;8.80;99.90;;;;;;5073991;28;20277;-50
2021/10/02 05:18:53;;;;;;;15.35;11.70;;;8.60;99.90;;;;;;5074112;28;20210;-52
2021/10/02 05:21:21;;;;;;;15.52;12.57;;;8.60;99.90;;;;;;5074674;28;20253;-55
2021/10/02 05:23:48;;;;;;;12.77;11.27;;;8.60;99.90;;;;;;5074115;28;20390;-47
2021/10/02 05:26:15;;;;;;;17.73;11.90;;;8.60;99.90;;;;;;5070688;28;20276;-49
2021/10/02 05:28:42;;;;;;;21.35;12.57;;;8.80;99.90;;;;;;5073548;28;20249;-50
2021/10/02 05:31:10;;;;;;;15.13;12.65;;;9.10;99.90;;;;;;5070048;28;20200;-50
2021/10/02 05:33:37;;;;;;;14.40;11.75;;;9.00;99.90;;;;;;5074870;28;20252;-52
2021/10/02 05:36:05;;;;;;;21.27;13.23;;;8.80;99.90;;;;;;5079539;28;20203;-47
2021/10/02 05:38:32;;;;;;;14.75;11.55;;;9.00;99.90;;;;;;5079262;28;20237;-51
2021/10/02 05:40:59;;;;;;;17.15;12.13;;;9.00;99.90;;;;;;5078865;28;20244;-50
2021/10/02 05:43:26;;;;;;;16.75;12.05;;;9.10;99.90;;;;;;5079177;28;20414;-50
2021/10/02 05:45:53;;;;;;;14.38;11.48;;;9.10;99.90;;;;;;5079582;28;20418;-49
2021/10/02 05:48:20;;;;;;;18.00;12.60;;;9.10;99.90;;;;;;5079351;28;20195;-53
2021/10/02 05:50:48;;;;;;;13.50;11.48;;;9.10;99.90;;;;;;5079425;28;20240;-47
2021/10/02 05:53:15;;;;;;;18.05;13.25;;;9.10;99.90;;;;;;5078325;28;20223;-52
2021/10/02 05:55:42;;;;;;;16.20;11.32;;;9.20;99.90;;;;;;5079380;28;20244;-52
2021/10/02 05:58:09;;;;;;;15.57;11.00;;;9.30;99.90;;;;;;5077137;28;20208;-50
2021/10/02 06:00:37;;;;;;;17.55;12.45;;;9.40;99.90;;;;;;5076309;28;20252;-49
2021/10/02 06:03:04;;;;;;;19.02;12.27;;;9.60;99.90;;;;;;5078816;28;20231;-50
2021/10/02 06:05:31;;;;;;;13.00;10.60;;;9.70;99.90;;;;;;5078752;28;20220;-50
2021/10/02 06:07:58;;;;;;;16.55;11.57;;;10.10;99.90;;;;;;5078696;28;20499;-54
2021/10/02 06:10:26;;;;;;;14.00;10.00;;;10.50;99.90;;;;;;5079059;28;20417;-51
2021/10/02 06:12:54;;;;;;;15.00;10.05;;;11.00;99.90;;;;;;5078770;28;20228;-52
2021/10/02 06:15:24;;;;;;;12.40;10.80;;;11.30;99.90;;;;;;5078378;28;20223;-48
2021/10/02 06:17:52;;;;;;;13.02;9.68;;;11.60;99.90;;;;;;5079187;28;20206;-53
2021/10/02 06:20:20;;;;;;;11.93;9.98;;;11.90;99.90;;;;;;5075592;28;20206;-50
2021/10/02 06:22:48;;;;;;;12.77;9.35;;;12.00;99.90;;;;;;5078352;28;20253;-49
2021/10/02 06:25:16;;;;;;;12.77;10.73;;;11.90;99.90;;;;;;5078193;28;20524;-52
2021/10/02 06:27:45;;;;;;;16.20;10.50;;;11.90;99.90;;;;;;5075844;28;20505;-48
2021/10/02 06:30:12;;;;;;;11.68;10.57;;;11.90;99.90;;;;;;5076046;28;20429;-47
2021/10/02 06:32:39;;;;;;;12.75;9.82;;;11.80;99.90;;;;;;5077831;28;20447;-50
2021/10/02 06:35:07;;;;;;;11.15;8.88;;;11.70;99.90;;;;;;5078810;28;20214;-53
2021/10/02 06:37:34;;;;;;;11.98;9.98;;;11.90;99.90;;;;;;5078377;28;20198;-52
2021/10/02 06:40:01;;;;;;;13.38;10.48;;;12.10;99.90;;;;;;5060597;28;20228;-51
2021/10/02 06:42:29;;;;;;;14.70;10.68;;;12.20;99.90;;;;;;5078172;28;20214;-55
2021/10/02 06:44:56;;;;;;;12.70;9.88;;;12.30;99.90;;;;;;5077933;28;20493;-49
2021/10/02 06:47:23;;;;;;;14.48;12.15;;;12.70;99.90;;;;;;5078012;28;20226;-50
2021/10/02 06:49:56;;;;;;;12.57;10.68;;;13.20;99.90;;;;;;5075916;28;20210;-50
2021/10/02 06:52:25;;;;;;;13.73;11.15;;;13.70;99.90;;;;;;5070470;28;20216;-52
2021/10/02 06:54:53;;;;;;;12.02;10.48;;;14.00;99.90;;;;;;5076170;28;20203;-50
2021/10/02 06:57:21;;;;;;;12.88;10.95;;;14.30;99.90;;;;;;5075325;28;20199;-49
2021/10/02 06:59:49;;;;;;;10.57;8.30;;;14.90;99.90;;;;;;5078404;28;20268;-52
2021/10/02 07:02:17;;;;;;;15.85;10.38;;;15.50;99.90;;;;;;5074247;28;20266;-53
2021/10/02 07:04:48;;;;;;;12.03;9.83;;;16.00;99.90;;;;;;5080317;28;20237;-50
2021/10/02 07:07:17;;;;;;;10.93;9.70;;;16.60;99.90;;;;;;5074296;28;20460;-51
2021/10/02 07:09:45;;;;;;;11.90;9.57;;;16.60;99.90;;;;;;5059925;28;20190;-47
2021/10/02 07:12:13;;;;;;;10.83;9.73;;;17.10;99.90;;;;;;5076345;28;20239;-52
2021/10/02 07:14:40;;;;;;;10.97;9.10;;;17.70;99.90;;;;;;5077196;28;20435;-47
2021/10/02 07:17:10;;;;;;;10.63;9.63;;;18.60;99.90;;;;;;5078570;28;20432;-50
2021/10/02 07:19:37;;;;;;;11.73;8.80;;;19.50;99.90;;;;;;5075417;28;20421;-48
2021/10/02 07:22:04;;;;;;;10.17;9.27;;;20.20;99.90;;;;;;5076512;28;20493;-50
2021/10/02 07:24:31;;;;;;;9.60;8.67;;;21.80;99.90;;;;;;5079877;28;20440;-49
2021/10/02 07:26:58;;;;;;;10.97;10.07;;;23.50;99.90;;;;;;5071315;28;20499;-47
2021/10/02 07:29:25;;;;;;;13.00;11.10;;;24.40;99.90;;;;;;5077592;28;20475;-52
2021/10/02 07:31:52;;;;;;;12.13;10.83;;;25.00;99.90;;;;;;5066611;28;20683;-53
2021/10/02 07:34:20;;;;;;;11.97;10.90;;;26.10;98.50;;;;;;5073762;28;20593;-50
2021/10/02 07:36:48;;;;;;;10.90;10.00;;;26.90;96.80;;;;;;5071117;28;20700;-48
2021/10/02 07:39:15;;;;;;;11.40;10.20;;;27.00;95.40;;;;;;5061597;28;20435;-50
2021/10/02 07:41:46;;;;;;;13.97;12.67;;;27.40;95.20;;;;;;5069949;28;20459;-49
2021/10/02 07:44:17;;;;;;;12.77;11.53;;;27.70;93.30;;;;;;5067621;28;20412;-50
2021/10/02 07:46:52;;;;;;;12.90;11.73;;;28.00;93.40;;;;;;5068556;28;20536;-53
2021/10/02 07:49:21;;;;;;;13.00;11.60;;;28.40;92.00;;;;;;5068447;28;20432;-49
2021/10/02 07:51:49;;;;;;;13.37;12.30;;;29.40;91.00;;;;;;5066266;28;20513;-52
2021/10/02 07:54:20;;;;;;;13.10;11.93;;;30.00;89.80;;;;;;5070487;28;20751;-53
2021/10/02 07:56:48;;;;;;;12.10;11.07;;;28.50;88.80;;;;;;5070953;28;20643;-54
2021/10/02 07:59:16;;;;;;;9.97;9.37;;;27.80;91.10;;;;;;5069258;28;20444;-56
2021/10/02 08:01:44;;;;;;;11.43;10.63;;;28.70;89.60;;;;;;5081929;28;20529;-50
2021/10/02 08:04:12;;;;;;;10.77;9.90;;;28.00;89.50;;;;;;5080905;28;20433;-48
2021/10/02 08:06:44;;;;;;;10.00;9.20;;;27.70;90.20;;;;;;5071574;28;20702;-49
2021/10/02 08:09:12;;;;;;;12.47;11.47;;;28.20;90.00;;;;;;5071883;28;20462;-52
2021/10/02 08:11:39;;;;;;;11.37;10.60;;;28.10;88.80;;;;;;5068445;28;20864;-52
2021/10/02 08:14:08;;;;;;;12.97;11.90;;;28.40;87.40;;;;;;5067570;28;20449;-51
2021/10/02 08:16:37;;;;;;;11.80;10.90;;;28.80;87.30;;;;;;5069825;28;20436;-51
2021/10/02 08:19:07;;;;;;;11.93;10.93;;;29.00;87.10;;;;;;5077770;28;20439;-48
2021/10/02 08:21:39;;;;;;;12.83;11.90;;;29.10;85.20;;;;;;5074459;28;20778;-50
2021/10/02 08:24:07;;;;;;;11.33;10.43;;;28.70;86.50;;;;;;5070365;28;20771;-53
2021/10/02 08:26:35;;;;;;;11.70;11.00;;;28.40;86.50;;;;;;5063687;28;20851;-50
2021/10/02 08:29:04;;;;;;;10.90;10.20;;;28.80;86.70;;;;;;5052731;28;20447;-48
2021/10/02 08:31:33;;;;;;;10.97;10.20;;;28.30;84.70;;;;;;5062470;28;20703;-53
2021/10/02 08:34:20;;;;;;;10.77;10.07;;;27.10;89.20;;;;;;5080925;28;20750;-49
2021/10/02 08:36:48;;;;;;;13.23;11.90;;;26.80;90.20;;;;;;5069914;28;20410;-57
2021/10/02 08:39:16;;;;;;;12.43;11.43;;;26.90;90.10;;;;;;5070479;28;20439;-48
2021/10/02 08:41:45;;;;;;;11.20;10.30;;;27.50;89.00;;;;;;5066250;28;20461;-51
2021/10/02 08:44:20;;;;;;;9.60;9.00;;;27.20;88.50;;;;;;5074226;28;20434;-52
2021/10/02 08:46:50;;;;;;;10.10;9.30;;;27.20;87.40;;;;;;5078269;28;20505;-55
2021/10/02 08:49:30;;;;;;;12.37;11.37;;;26.70;89.90;;;;;;5076271;28;20730;-50
2021/10/02 08:52:02;;;;;;;10.30;9.33;;;26.80;88.90;;;;;;5079187;28;20475;-52
2021/10/02 08:54:38;;;;;;;9.67;9.00;;;26.20;89.40;;;;;;5079770;28;20434;-48
2021/10/02 08:57:22;;;;;;;11.00;10.20;;;27.20;89.40;;;;;;5071885;28;20448;-52
2021/10/02 08:59:53;;;;;;;10.73;9.90;;;27.60;86.90;;;;;;5074801;28;20429;-55
2021/10/02 09:02:22;;;;;;;9.67;9.03;;;27.60;87.90;;;;;;5075703;28;20531;-48
2021/10/02 09:04:51;;;;;;;10.23;9.63;;;28.50;85.90;;;;;;5078955;28;20450;-56
2021/10/02 09:07:19;;;;;;;9.87;9.00;;;27.80;85.10;;;;;;5072269;28;20487;-53
2021/10/02 09:09:48;;;;;;;9.57;8.97;;;26.90;85.70;;;;;;5072394;28;20437;-51
2021/10/02 09:12:19;;;;;;;9.90;8.90;;;25.70;90.70;;;;;;5062067;28;20457;-56
2021/10/02 09:14:49;;;;;;;9.50;8.67;;;25.00;91.00;;;;;;5069191;28;20573;-51
2021/10/02 09:17:17;;;;;;;12.77;9.33;;;24.10;92.80;;;;;;5066104;28;20432;-53
2021/10/02 09:19:45;;;;;;;9.00;8.37;;;23.40;94.00;;;;;;5073844;28;20444;-48
2021/10/02 09:22:14;;;;;;;10.00;9.10;;;22.90;94.60;;;;;;5076152;28;20418;-49
2021/10/02 09:24:44;;;;;;;8.33;7.83;;;22.90;95.00;;;;;;5066735;28;20407;-51
2021/10/02 09:27:22;;;;;;;8.43;7.63;;;23.10;94.80;;;;;;5071822;28;20511;-51
2021/10/02 09:29:54;;;;;;;7.47;6.97;;;22.80;95.70;;;;;;5072284;28;20443;-50
2021/10/02 09:32:26;;;;;;;8.53;8.03;;;22.60;96.10;;;;;;5070574;28;20447;-53
2021/10/02 09:34:56;;;;;;;8.00;7.40;;;22.60;96.10;;;;;;5076255;28;20447;-52
2021/10/02 09:37:34;;;;;;;8.07;7.53;;;22.70;96.50;;;;;;5061292;28;20417;-54
2021/10/02 09:40:17;;;;;;;8.33;7.70;;;22.80;96.30;;;;;;5065405;28;20460;-53
2021/10/02 09:42:53;;;;;;;7.90;7.40;;;23.10;95.60;;;;;;5069459;28;20629;-48
2021/10/02 09:45:24;;;;;;;8.10;7.50;;;23.20;95.50;;;;;;5063759;28;20440;-51
2021/10/02 09:47:55;;;;;;;8.60;7.90;;;23.20;95.30;;;;;;5073341;28;20471;-47
2021/10/02 09:50:29;;;;;;;8.80;8.20;;;23.20;95.20;;;;;;5070787;28;20411;-50
2021/10/02 09:53:19;;;;;;;8.20;7.63;;;23.10;95.20;;;;;;5065080;28;20494;-48
2021/10/02 09:55:50;;;;;;;8.50;7.80;;;23.20;95.20;;;;;;5067998;28;20789;-50
2021/10/02 09:58:31;;;;;;;8.20;7.50;;;23.20;95.00;;;;;;5070266;28;20429;-53
2021/10/02 10:01:01;;;;;;;8.03;7.30;;;23.20;95.70;;;;;;5076533;28;20432;-52
2021/10/02 10:03:48;;;;;;;7.87;7.13;;;23.20;94.70;;;;;;5075701;28;20433;-50
2021/10/02 10:06:19;;;;;;;8.03;7.40;;;23.30;94.80;;;;;;5066129;28;20534;-50
2021/10/02 10:09:10;;;;;;;7.07;6.47;;;23.60;95.70;;;;;;5060788;28;20425;-48
2021/10/02 10:11:52;;;;;;;7.90;7.30;;;23.40;95.30;;;;;;5065676;28;20441;-51
2021/10/02 10:14:24;;;;;;;8.37;7.67;;;23.50;94.70;;;;;;5062546;28;20403;-54
2021/10/02 10:16:53;;;;;;;7.27;6.67;;;23.80;94.60;;;;;;5072958;28;20489;-50
2021/10/02 10:19:23;;;;;;;7.30;6.70;;;23.80;94.60;;;;;;5073742;28;20406;-50
2021/10/02 10:22:17;;;;;;;7.50;7.00;;;23.90;94.70;;;;;;5063779;28;20456;-52
2021/10/02 10:24:56;;;;;;;8.63;7.93;;;23.50;94.60;;;;;;5065585;28;20482;-50
2021/10/02 10:27:35;;;;;;;8.27;7.43;;;23.20;95.10;;;;;;5064647;28;20476;-54
2021/10/02 10:30:15;;;;;;;11.40;8.30;;;22.50;97.00;;;;;;5072386;28;20842;-48
2021/10/02 10:33:01;;;;;;;8.10;7.40;;;22.70;96.40;;;;;;5080305;28;20505;-51
2021/10/02 10:35:33;;;;;;;9.90;8.27;;;22.60;97.00;;;;;;5082961;28;20450;-48
2021/10/02 10:38:00;;;;;;;7.30;6.80;;;22.30;97.20;;;;;;5072040;28;20477;-50
2021/10/02 10:40:27;;;;;;;9.03;8.17;;;22.30;97.60;;;;;;5063819;28;20666;-52
2021/10/02 10:42:55;;;;;;;8.70;8.00;;;22.40;97.80;;;;;;5071740;28;20446;-50
2021/10/02 10:45:24;;;;;;;8.37;7.57;;;22.30;98.30;;;;;;5070620;28;20436;-49
2021/10/02 10:47:52;;;;;;;8.77;7.97;;;22.30;98.40;;;;;;5074454;28;20522;-56
2021/10/02 10:50:19;;;;;;;9.20;8.30;;;22.40;98.20;;;;;;5065847;28;20433;-51
2021/10/02 10:52:47;;;;;;;9.87;8.90;;;22.00;98.50;;;;;;5067840;28;20455;-52
2021/10/02 10:55:17;;;;;;;9.30;8.60;;;21.60;98.80;;;;;;5076519;28;20422;-48
2021/10/02 10:57:47;;;;;;;10.77;9.87;;;21.50;99.80;;;;;;5079834;28;20415;-51
2021/10/02 11:00:16;;;;;;;9.80;9.00;;;21.40;99.90;;;;;;5073240;28;20421;-52
2021/10/02 11:02:54;;;;;;;10.10;9.20;;;21.40;99.90;;;;;;5076089;28;20433;-50
2021/10/02 11:05:36;;;;;;;10.03;9.17;;;21.30;99.90;;;;;;5070662;28;20413;-56
2021/10/02 11:08:05;;;;;;;9.97;9.10;;;21.50;99.90;;;;;;5067269;28;20523;-51
2021/10/02 11:10:44;;;;;;;9.57;8.77;;;21.60;99.90;;;;;;5076919;28;20441;-47
2021/10/02 11:13:12;;;;;;;10.93;9.83;;;21.60;99.90;;;;;;5072078;28;20469;-51
2021/10/02 11:15:42;;;;;;;10.97;9.90;;;21.60;99.90;;;;;;5077480;28;20405;-48
2021/10/02 11:18:42;;;;;;;13.83;12.53;;;21.40;99.90;;;;;;5078655;28;20500;-47
2021/10/02 11:21:12;;;;;;;10.17;9.17;;;21.50;99.90;;;;;;5071292;28;20415;-47
2021/10/02 11:23:40;;;;;;;10.20;9.20;;;21.30;99.90;;;;;;5082368;28;20844;-51
2021/10/02 11:26:24;;;;;;;14.37;9.90;;;21.00;99.90;;;;;;5071142;28;20437;-47
2021/10/02 11:29:00;;;;;;;9.93;9.13;;;20.80;99.90;;;;;;5076779;28;20428;-53
2021/10/02 11:31:29;;;;;;;9.27;8.37;;;20.60;99.90;;;;;;5069590;28;20655;-51
2021/10/02 11:33:59;;;;;;;10.73;9.80;;;20.50;99.90;;;;;;5079057;28;20692;-52
2021/10/02 11:36:29;;;;;;;9.93;9.03;;;20.50;99.90;;;;;;5078094;28;20413;-52
2021/10/02 11:39:18;;;;;;;9.77;8.93;;;20.60;99.90;;;;;;5062272;28;20413;-51
2021/10/02 11:41:49;;;;;;;9.67;8.87;;;20.70;99.90;;;;;;5070034;28;20514;-50
2021/10/02 11:44:35;;;;;;;10.27;9.07;;;20.80;99.90;;;;;;5062211;28;20487;-48
2021/10/02 11:47:34;;;;;;;9.20;8.40;;;20.90;99.90;;;;;;5069322;28;20488;-52
2021/10/02 11:50:24;;;;;;;8.33;7.70;;;20.90;99.90;;;;;;5051750;28;20444;-52
2021/10/02 11:52:54;;;;;;;10.77;9.77;;;20.80;99.90;;;;;;5069379;28;20472;-51
2021/10/02 11:55:35;;;;;;;9.90;9.00;;;20.80;99.90;;;;;;5080315;28;20769;-54
2021/10/02 11:58:11;;;;;;;8.37;7.67;;;21.00;99.90;;;;;;5076715;28;20411;-52
2021/10/02 12:00:44;;;;;;;8.77;8.00;;;21.00;99.90;;;;;;5071353;28;20417;-50
2021/10/02 12:03:26;;;;;;;9.67;8.60;;;21.10;99.90;;;;;;5069370;28;20475;-48
2021/10/02 12:05:55;;;;;;;9.57;8.07;;;21.10;99.90;;;;;;5075934;28;20408;-47
2021/10/02 12:08:23;;;;;;;9.73;8.90;;;21.10;99.90;;;;;;5075397;28;20643;-53
2021/10/02 12:11:10;;;;;;;10.37;9.20;;;21.20;99.90;;;;;;5078798;28;20408;-52
2021/10/02 12:13:51;;;;;;;12.50;9.50;;;21.20;99.90;;;;;;5073977;28;20532;-49
2021/10/02 12:16:26;;;;;;;8.90;8.10;;;21.30;99.90;;;;;;5073899;28;20510;-47
2021/10/02 12:18:58;;;;;;;9.10;8.40;;;21.20;99.90;;;;;;5074783;28;20455;-48
2021/10/02 12:21:32;;;;;;;9.50;8.60;;;20.90;99.90;;;;;;5073084;28;20400;-50
2021/10/02 12:24:40;;;;;;;9.60;8.20;;;20.80;99.90;;;;;;5077536;28;20416;-52
2021/10/02 12:27:16;;;;;;;9.20;8.30;;;20.80;99.90;;;;;;4986497;28;20752;-46
2021/10/02 12:29:50;;;;;;;10.10;9.10;;;20.80;99.90;;;;;;4988697;28;20437;-51
2021/10/02 12:32:20;;;;;;;9.37;8.47;;;20.80;99.90;;;;;;5042652;28;20445;-49
2021/10/02 12:34:56;;;;;;;8.77;7.97;;;21.10;99.90;;;;;;5074264;28;20608;-49
2021/10/02 12:37:34;;;;;;;9.17;8.30;;;21.00;99.90;;;;;;5078141;28;20411;-53
2021/10/02 12:40:07;;;;;;;9.10;8.30;;;21.00;99.90;;;;;;5072342;28;20423;-51
2021/10/02 12:42:40;;;;;;;10.07;8.03;;;21.00;99.90;;;;;;5070544;28;20644;-51
2021/10/02 12:45:12;;;;;;;8.97;8.00;;;21.10;99.90;;;;;;5064754;28;20466;-50
2021/10/02 12:47:40;;;;;;;11.07;9.00;;;21.20;99.90;;;;;;5066550;28;20632;-55
2021/10/02 12:50:13;;;;;;;8.77;7.83;;;21.20;99.90;;;;;;5072702;28;20417;-52
2021/10/02 12:52:42;;;;;;;9.40;8.60;;;21.10;99.90;;;;;;5073885;28;20452;-54
2021/10/02 12:55:12;;;;;;;7.20;6.60;;;21.10;99.90;;;;;;5078410;28;20666;-49
2021/10/02 12:57:41;;;;;;;7.87;7.17;;;21.20;99.90;;;;;;5078997;28;20434;-51
2021/10/02 13:00:17;;;;;;;7.10;6.60;;;21.10;99.90;;;;;;5075816;28;20450;-53
2021/10/02 13:02:49;;;;;;;9.03;8.20;;;21.20;99.90;;;;;;5082778;28;20476;-53
2021/10/02 13:05:19;;;;;;;8.40;7.70;;;21.30;99.90;;;;;;5082581;28;20435;-54
2021/10/02 13:08:00;;;;;;;9.97;8.47;;;21.40;99.90;;;;;;5081373;28;20498;-53
2021/10/02 13:10:27;;;;;;;8.57;7.87;;;21.50;99.90;;;;;;5073154;28;20444;-54
2021/10/02 13:12:58;;;;;;;8.97;8.17;;;21.40;99.90;;;;;;5070471;28;20557;-51
2021/10/02 13:15:33;;;;;;;7.87;7.20;;;21.40;99.90;;;;;;5070408;28;20434;-53
2021/10/02 13:18:07;;;;;;;9.73;8.87;;;21.30;99.90;;;;;;5068476;28;20442;-51
2021/10/02 13:20:42;;;;;;;7.03;6.43;;;21.40;99.90;;;;;;5071710;28;20683;-51
2021/10/02 13:23:16;;;;;;;7.90;7.20;;;21.40;99.90;;;;;;5067036;28;20440;-51
2021/10/02 13:25:52;;;;;;;9.60;8.17;;;21.40;99.90;;;;;;5067765;28;20439;-49
2021/10/02 13:28:30;;;;;;;6.90;6.40;;;21.50;99.90;;;;;;5066195;28;20547;-48
2021/10/02 13:31:08;;;;;;;7.50;6.80;;;21.60;99.90;;;;;;5067350;28;20633;-52
2021/10/02 13:33:40;;;;;;;8.37;7.60;;;21.60;99.90;;;;;;5070578;28;20630;-50
2021/10/02 13:36:07;;;;;;;9.43;8.60;;;21.60;99.90;;;;;;5079947;28;20447;-49
2021/10/02 13:38:39;;;;;;;8.00;7.27;;;21.60;99.90;;;;;;5080419;28;20773;-53
2021/10/02 13:41:12;;;;;;;7.77;7.07;;;21.60;99.90;;;;;;5064789;28;20713;-46
2021/10/02 13:43:54;;;;;;;8.70;7.83;;;21.60;99.90;;;;;;5069589;28;20617;-47
2021/10/02 13:46:44;;;;;;;7.60;6.93;;;21.40;99.90;;;;;;5065106;28;20409;-46
2021/10/02 13:49:13;;;;;;;11.63;8.60;;;21.40;99.90;;;;;;5061265;28;20457;-48
2021/10/02 13:51:42;;;;;;;9.10;8.00;;;21.30;99.90;;;;;;5073308;28;20499;-53